Time;durP1;ratioP1;P1;durP2;ratioP2;P2;SDS_P1;SDS_P2;PMS_P1;PMS_P2;Temp;Humidity;BMP_temperature;BMP_pressure;BME280_temperature;BME280_humidity;BME280_pressure;Samples;Min_cycle;Max_cycle;Signal;HPM_P1;HPM_P2
2022/11/23 00:01:29;;;;;;;17.70;12.20;;;6.80;99.90;;;;;;5146978;27;20432;-74
2022/11/23 00:03:57;;;;;;;14.65;11.18;;;6.90;99.90;;;;;;5138885;27;20253;-74
2022/11/23 00:06:24;;;;;;;14.82;12.32;;;6.90;99.90;;;;;;5100164;27;20031;-76
2022/11/23 00:08:51;;;;;;;14.40;10.77;;;6.90;99.90;;;;;;5142443;27;20039;-74
2022/11/23 00:11:18;;;;;;;17.23;11.35;;;6.90;99.90;;;;;;5141612;27;20038;-75
2022/11/23 00:13:45;;;;;;;15.35;10.15;;;7.00;99.90;;;;;;5122564;27;20064;-75
2022/11/23 00:16:17;;;;;;;17.20;11.35;;;7.00;99.90;;;;;;5122212;27;20534;-74
2022/11/23 00:18:43;;;;;;;13.95;10.73;;;7.00;99.90;;;;;;5142286;27;20038;-74
2022/11/23 00:21:11;;;;;;;18.38;11.85;;;7.10;99.90;;;;;;5121751;27;20127;-75
2022/11/23 00:23:37;;;;;;;15.30;10.05;;;7.00;99.90;;;;;;5107450;27;20058;-74
2022/11/23 00:26:03;;;;;;;16.30;9.85;;;7.20;99.90;;;;;;5121659;27;20076;-74
2022/11/23 00:28:29;;;;;;;12.02;10.13;;;7.10;99.90;;;;;;5106865;27;20716;-75
2022/11/23 00:30:55;;;;;;;14.63;8.95;;;6.60;99.90;;;;;;5121098;27;20043;-74
2022/11/23 00:33:21;;;;;;;17.63;10.38;;;8.30;99.90;;;;;;5141224;27;20039;-74
2022/11/23 00:35:47;;;;;;;15.63;9.77;;;7.10;99.90;;;;;;5123561;27;20423;-73
2022/11/23 00:38:12;;;;;;;19.23;9.18;;;7.10;99.90;;;;;;5121893;27;20425;-75
2022/11/23 00:40:38;;;;;;;13.25;8.93;;;7.10;99.90;;;;;;5141192;27;20047;-75
2022/11/23 00:43:04;;;;;;;10.38;8.85;;;7.10;99.90;;;;;;5122698;27;20074;-76
2022/11/23 00:45:30;;;;;;;9.85;8.85;;;7.10;99.90;;;;;;5123733;27;20545;-74
2022/11/23 00:47:55;;;;;;;14.80;8.75;;;7.10;99.90;;;;;;5120718;27;20043;-75
2022/11/23 00:50:21;;;;;;;13.10;8.63;;;7.10;99.90;;;;;;5122900;27;20087;-74
2022/11/23 00:52:46;;;;;;;11.20;8.07;;;7.20;99.90;;;;;;5123605;27;20035;-74
2022/11/23 00:55:12;;;;;;;11.82;8.38;;;7.20;99.90;;;;;;5139438;27;21073;-74
2022/11/23 00:57:38;;;;;;;10.65;9.43;;;7.50;99.90;;;;;;5142134;27;20074;-72
2022/11/23 01:00:05;;;;;;;17.27;9.23;;;7.20;99.90;;;;;;5140503;27;20390;-73
2022/11/23 01:02:34;;;;;;;12.77;7.95;;;7.20;99.90;;;;;;5122878;27;20071;-74
2022/11/23 01:05:00;;;;;;;13.30;8.80;;;7.20;99.90;;;;;;5123023;27;20075;-76
2022/11/23 01:07:29;;;;;;;12.45;8.05;;;7.20;99.90;;;;;;5121378;27;20043;-76
2022/11/23 01:09:55;;;;;;;12.85;8.27;;;7.20;99.90;;;;;;5106683;27;20081;-75
2022/11/23 01:12:20;;;;;;;10.77;7.57;;;7.30;99.90;;;;;;5143806;27;20042;-76
2022/11/23 01:14:46;;;;;;;14.40;8.82;;;7.20;99.90;;;;;;5145431;27;20157;-75
2022/11/23 01:17:12;;;;;;;14.40;8.25;;;7.20;99.90;;;;;;5143394;27;20568;-75
2022/11/23 01:19:38;;;;;;;16.40;8.27;;;8.60;99.90;;;;;;5115674;27;20044;-74
2022/11/23 01:22:05;;;;;;;14.45;8.43;;;8.30;99.90;;;;;;5125920;27;20046;-74
2022/11/23 01:24:31;;;;;;;16.13;8.32;;;8.10;99.90;;;;;;5124948;27;20042;-75
2022/11/23 01:26:57;;;;;;;13.45;8.82;;;7.30;99.90;;;;;;5126802;27;20046;-75
2022/11/23 01:29:23;;;;;;;14.68;8.43;;;7.70;99.90;;;;;;5107703;27;20027;-74
2022/11/23 01:31:49;;;;;;;12.32;8.43;;;7.30;99.90;;;;;;5145436;27;20072;-74
2022/11/23 01:34:15;;;;;;;12.55;7.93;;;7.30;99.90;;;;;;5144547;27;20035;-73
2022/11/23 01:36:41;;;;;;;20.13;8.57;;;7.40;99.90;;;;;;5125777;27;20049;-75
2022/11/23 01:39:07;;;;;;;11.32;8.30;;;7.30;99.90;;;;;;5107565;27;20055;-73
2022/11/23 01:41:38;;;;;;;13.55;8.63;;;7.80;99.90;;;;;;5143627;27;20055;-75
2022/11/23 01:44:25;;;;;;;14.57;7.97;;;7.40;99.90;;;;;;5143538;27;20037;-75
2022/11/23 01:46:50;;;;;;;17.90;9.50;;;8.60;99.90;;;;;;5128319;27;20371;-76
2022/11/23 01:49:17;;;;;;;12.70;8.60;;;8.50;99.90;;;;;;5123770;27;20042;-73
2022/11/23 01:51:48;;;;;;;13.75;8.20;;;8.00;99.90;;;;;;5110802;27;20055;-75
2022/11/23 01:54:18;;;;;;;12.20;9.18;;;7.40;99.90;;;;;;5107447;27;20071;-75
2022/11/23 01:56:54;;;;;;;15.50;9.68;;;7.40;99.90;;;;;;5105293;27;20375;-75
2022/11/23 01:59:21;;;;;;;18.45;9.27;;;7.40;99.90;;;;;;5110519;27;20061;-76
2022/11/23 02:01:47;;;;;;;13.68;9.30;;;7.40;99.90;;;;;;5140664;27;20331;-73
2022/11/23 02:04:21;;;;;;;18.35;10.13;;;8.60;99.90;;;;;;5107158;27;20113;-72
2022/11/23 02:06:47;;;;;;;19.00;9.55;;;7.40;99.90;;;;;;5110220;27;20051;-71
2022/11/23 02:09:15;;;;;;;14.68;9.98;;;7.40;99.90;;;;;;5123945;27;20042;-72
2022/11/23 02:11:40;;;;;;;15.57;9.18;;;7.40;99.90;;;;;;5125741;27;20062;-72
2022/11/23 02:14:06;;;;;;;12.73;9.45;;;8.50;99.90;;;;;;5106806;27;20043;-73
2022/11/23 02:16:32;;;;;;;16.83;10.23;;;7.40;99.90;;;;;;5144443;27;20488;-72
2022/11/23 02:18:59;;;;;;;18.33;10.20;;;7.40;99.90;;;;;;5142611;27;20050;-73
2022/11/23 02:21:24;;;;;;;16.08;9.88;;;7.40;99.90;;;;;;5106308;27;20395;-74
2022/11/23 02:24:11;;;;;;;19.38;10.38;;;7.40;99.90;;;;;;5128604;27;20042;-74
2022/11/23 02:26:37;;;;;;;12.45;9.85;;;7.40;99.90;;;;;;5098637;27;20031;-73
2022/11/23 02:29:17;;;;;;;13.60;10.15;;;8.80;99.90;;;;;;5121624;27;20042;-73
2022/11/23 02:31:43;;;;;;;18.77;10.25;;;7.40;99.90;;;;;;5144673;27;20050;-73
2022/11/23 02:34:08;;;;;;;15.32;9.68;;;7.90;99.90;;;;;;5122528;27;20050;-74
2022/11/23 02:36:41;;;;;;;16.23;10.63;;;7.40;99.90;;;;;;5128116;27;20498;-75
2022/11/23 02:39:07;;;;;;;16.23;10.50;;;8.00;99.90;;;;;;5124622;27;20055;-73
2022/11/23 02:41:43;;;;;;;18.73;10.07;;;8.20;99.90;;;;;;5147216;27;20437;-73
2022/11/23 02:44:25;;;;;;;17.45;10.13;;;7.40;99.90;;;;;;5099911;27;20039;-75
2022/11/23 02:46:52;;;;;;;18.95;10.15;;;7.40;99.90;;;;;;5142265;27;20070;-74
2022/11/23 02:49:18;;;;;;;16.13;11.07;;;7.40;99.90;;;;;;5123841;27;20035;-73
2022/11/23 02:51:43;;;;;;;19.70;10.77;;;7.40;99.90;;;;;;5108254;27;20467;-72
2022/11/23 02:54:09;;;;;;;15.52;10.45;;;7.40;99.90;;;;;;5122862;27;20047;-73
2022/11/23 02:56:35;;;;;;;13.45;10.45;;;7.40;99.90;;;;;;5107751;27;20046;-73
2022/11/23 02:59:00;;;;;;;19.33;10.70;;;7.40;99.90;;;;;;5124015;27;20433;-75
2022/11/23 03:01:27;;;;;;;20.27;10.77;;;7.40;99.90;;;;;;5106921;27;20394;-75
2022/11/23 03:03:53;;;;;;;19.35;10.77;;;7.40;99.90;;;;;;5122348;27;20035;-75
2022/11/23 03:06:19;;;;;;;18.55;11.75;;;7.40;99.90;;;;;;5112531;27;20053;-74
2022/11/23 03:08:44;;;;;;;18.40;11.43;;;7.50;99.90;;;;;;5103423;27;20054;-74
2022/11/23 03:11:10;;;;;;;18.23;11.45;;;7.50;99.90;;;;;;5122263;27;20046;-75
2022/11/23 03:13:36;;;;;;;16.98;11.38;;;8.80;99.90;;;;;;5145364;27;20082;-75
2022/11/23 03:16:01;;;;;;;17.77;12.02;;;7.40;99.90;;;;;;5119814;27;20062;-75
2022/11/23 03:18:27;;;;;;;15.60;11.23;;;7.60;99.90;;;;;;5111151;27;20042;-75
2022/11/23 03:20:52;;;;;;;17.23;12.23;;;7.50;99.90;;;;;;5120551;27;20039;-73
2022/11/23 03:23:18;;;;;;;21.50;11.73;;;7.50;99.90;;;;;;5147164;27;20039;-76
2022/11/23 03:25:44;;;;;;;20.30;11.85;;;7.50;99.90;;;;;;5120643;27;20490;-74
2022/11/23 03:28:09;;;;;;;21.48;13.35;;;7.40;99.90;;;;;;5139820;27;20074;-73
2022/11/23 03:30:35;;;;;;;21.83;13.15;;;7.50;99.90;;;;;;5144234;27;20035;-73
2022/11/23 03:33:01;;;;;;;18.25;12.07;;;7.60;99.90;;;;;;5120850;27;20039;-75
2022/11/23 03:35:26;;;;;;;23.52;12.85;;;8.30;99.90;;;;;;5146891;27;20137;-75
2022/11/23 03:37:52;;;;;;;21.65;12.93;;;7.50;99.90;;;;;;5137978;27;20050;-75
2022/11/23 03:40:17;;;;;;;25.60;13.98;;;8.80;99.90;;;;;;5128543;27;20407;-74
2022/11/23 03:42:43;;;;;;;20.45;13.77;;;7.40;99.90;;;;;;5121146;27;20124;-75
2022/11/23 03:45:09;;;;;;;21.40;14.43;;;7.50;99.90;;;;;;5103339;27;20043;-75
2022/11/23 03:47:35;;;;;;;22.75;15.48;;;7.40;99.90;;;;;;5108850;27;20035;-75
2022/11/23 03:50:01;;;;;;;18.95;14.13;;;7.50;99.90;;;;;;5119253;27;20031;-74
2022/11/23 03:52:26;;;;;;;27.00;15.80;;;7.40;99.90;;;;;;5146745;27;20434;-74
2022/11/23 03:54:52;;;;;;;27.67;16.35;;;7.50;99.90;;;;;;5120201;27;20043;-75
2022/11/23 03:57:17;;;;;;;23.92;15.85;;;7.50;99.90;;;;;;5127926;27;20126;-76
2022/11/23 03:59:43;;;;;;;23.50;14.35;;;7.40;99.90;;;;;;5120751;27;20624;-74
2022/11/23 04:02:09;;;;;;;25.05;16.00;;;7.40;99.90;;;;;;5139176;27;20038;-76
2022/11/23 04:04:35;;;;;;;27.17;16.83;;;8.00;99.90;;;;;;5142233;27;20521;-75
2022/11/23 04:07:00;;;;;;;22.77;15.95;;;7.40;99.90;;;;;;5123719;27;20440;-74
2022/11/23 04:09:26;;;;;;;25.42;16.98;;;7.40;99.90;;;;;;5123799;27;20423;-76
2022/11/23 04:11:52;;;;;;;30.73;17.02;;;9.00;99.90;;;;;;5122701;27;20042;-75
2022/11/23 04:14:17;;;;;;;28.52;18.45;;;7.40;99.90;;;;;;5140696;27;20046;-75
2022/11/23 04:16:43;;;;;;;30.58;18.60;;;8.00;99.90;;;;;;5142464;27;20045;-75
2022/11/23 04:19:09;;;;;;;28.17;17.42;;;7.70;99.90;;;;;;5120997;27;20039;-74
2022/11/23 04:21:34;;;;;;;28.40;20.20;;;7.40;99.90;;;;;;5124146;27;20039;-74
2022/11/23 04:24:00;;;;;;;25.77;18.77;;;7.40;99.90;;;;;;5123489;27;20045;-75
2022/11/23 04:26:26;;;;;;;30.58;20.42;;;7.40;99.90;;;;;;5105598;27;20494;-74
2022/11/23 04:28:51;;;;;;;28.70;19.05;;;7.40;99.90;;;;;;5123150;27;20042;-74
2022/11/23 04:31:17;;;;;;;26.63;19.05;;;7.40;99.90;;;;;;5140253;27;20039;-75
2022/11/23 04:33:43;;;;;;;29.90;19.88;;;7.40;99.90;;;;;;5123386;27;20071;-76
2022/11/23 04:36:08;;;;;;;29.45;19.67;;;7.40;99.90;;;;;;5140330;27;20039;-75
2022/11/23 04:38:34;;;;;;;28.35;19.05;;;7.40;99.90;;;;;;5123684;27;20093;-75
2022/11/23 04:41:00;;;;;;;34.03;21.63;;;7.40;99.90;;;;;;5105756;27;20039;-76
2022/11/23 04:43:25;;;;;;;33.00;20.50;;;7.50;99.90;;;;;;5141382;27;20050;-73
2022/11/23 04:45:51;;;;;;;30.95;19.85;;;7.40;99.90;;;;;;5144557;27;20046;-73
2022/11/23 04:48:16;;;;;;;36.83;21.42;;;7.40;99.90;;;;;;5142592;27;20035;-74
2022/11/23 04:50:42;;;;;;;35.53;20.52;;;7.40;99.90;;;;;;5127714;27;20506;-74
2022/11/23 04:53:08;;;;;;;33.33;21.33;;;8.80;99.90;;;;;;5108089;27;20122;-75
2022/11/23 04:55:34;;;;;;;32.60;20.67;;;7.40;99.90;;;;;;5146270;27;20049;-75
2022/11/23 04:57:59;;;;;;;39.20;20.85;;;7.40;99.90;;;;;;5130757;27;20240;-75
2022/11/23 05:00:25;;;;;;;34.33;20.55;;;8.90;99.90;;;;;;5124218;27;20039;-75
2022/11/23 05:02:51;;;;;;;30.08;20.40;;;8.30;99.90;;;;;;5119898;27;20043;-74
2022/11/23 05:05:16;;;;;;;30.05;20.88;;;7.30;99.90;;;;;;5108835;27;20068;-75
2022/11/23 05:07:42;;;;;;;34.30;21.98;;;7.40;99.90;;;;;;5109392;27;20087;-75
2022/11/23 05:10:08;;;;;;;32.22;21.10;;;7.40;99.90;;;;;;5109811;27;20042;-75
2022/11/23 05:12:37;;;;;;;39.10;22.10;;;7.40;99.90;;;;;;5143970;27;20501;-75
2022/11/23 05:15:04;;;;;;;38.47;21.65;;;7.40;99.90;;;;;;5126072;27;20038;-75
2022/11/23 05:17:29;;;;;;;29.77;21.00;;;7.40;99.90;;;;;;5125248;27;20473;-74
2022/11/23 05:19:55;;;;;;;36.30;21.70;;;7.40;99.90;;;;;;5126803;27;20045;-74
2022/11/23 05:22:21;;;;;;;29.77;20.40;;;7.40;99.90;;;;;;5125254;27;20074;-73
2022/11/23 05:24:47;;;;;;;34.20;20.77;;;8.20;99.90;;;;;;5126713;27;20046;-76
2022/11/23 05:27:12;;;;;;;35.45;21.67;;;7.40;99.90;;;;;;5126444;27;20043;-73
2022/11/23 05:29:38;;;;;;;34.53;21.50;;;7.40;99.90;;;;;;5126432;27;20047;-72
2022/11/23 05:32:04;;;;;;;31.35;20.33;;;7.40;99.90;;;;;;5144991;27;20054;-74
2022/11/23 05:34:29;;;;;;;32.28;21.73;;;7.40;99.90;;;;;;5143586;27;20049;-75
2022/11/23 05:36:55;;;;;;;33.83;21.90;;;7.50;99.90;;;;;;5125772;27;20053;-75
2022/11/23 05:39:21;;;;;;;31.48;22.30;;;7.40;99.90;;;;;;5119756;27;20051;-74
2022/11/23 05:41:47;;;;;;;34.38;23.50;;;7.40;99.90;;;;;;5147274;27;20046;-75
2022/11/23 05:44:13;;;;;;;33.47;22.63;;;7.40;99.90;;;;;;5108293;27;20394;-75
2022/11/23 05:46:38;;;;;;;36.83;23.08;;;7.50;99.90;;;;;;5126576;27;20151;-75
2022/11/23 05:49:04;;;;;;;37.53;23.35;;;7.50;99.90;;;;;;5143768;27;20046;-75
2022/11/23 05:51:30;;;;;;;40.70;23.60;;;7.50;99.90;;;;;;5125346;27;20091;-75
2022/11/23 05:53:57;;;;;;;37.92;23.17;;;7.50;99.90;;;;;;5145010;27;20054;-75
2022/11/23 05:56:23;;;;;;;37.40;23.85;;;7.50;99.90;;;;;;5142074;27;20043;-75
2022/11/23 05:58:48;;;;;;;39.20;27.33;;;7.50;99.90;;;;;;5144030;27;20035;-76
2022/11/23 06:01:14;;;;;;;36.38;23.00;;;8.30;99.90;;;;;;5144574;27;20031;-75
2022/11/23 06:03:39;;;;;;;30.88;20.48;;;7.60;99.90;;;;;;5125182;27;20039;-75
2022/11/23 06:06:05;;;;;;;29.30;20.08;;;7.60;99.90;;;;;;5129338;27;20084;-75
2022/11/23 06:08:31;;;;;;;34.28;22.48;;;7.60;99.90;;;;;;5123202;27;20491;-75
2022/11/23 06:11:00;;;;;;;32.67;22.60;;;7.60;99.90;;;;;;5107215;27;20047;-75
2022/11/23 06:13:25;;;;;;;30.98;21.15;;;8.00;99.90;;;;;;5124989;27;20489;-75
2022/11/23 06:15:52;;;;;;;31.95;20.98;;;8.90;99.90;;;;;;5125644;27;20054;-75
2022/11/23 06:18:17;;;;;;;31.85;21.25;;;7.60;99.90;;;;;;5123694;27;20492;-74
2022/11/23 06:20:43;;;;;;;39.95;21.20;;;7.60;99.90;;;;;;5145638;27;20046;-74
2022/11/23 06:23:08;;;;;;;30.13;20.70;;;7.60;99.90;;;;;;5144411;27;20547;-76
2022/11/23 06:25:37;;;;;;;30.20;20.25;;;7.60;99.90;;;;;;5124395;27;20042;-75
2022/11/23 06:28:03;;;;;;;27.50;19.40;;;8.60;99.90;;;;;;5125070;27;20047;-75
2022/11/23 06:30:29;;;;;;;30.25;19.35;;;7.50;99.90;;;;;;5105753;27;21057;-74
2022/11/23 06:32:56;;;;;;;30.80;17.92;;;7.50;99.90;;;;;;5108085;27;20129;-74
2022/11/23 06:35:22;;;;;;;23.17;17.50;;;7.50;99.90;;;;;;5123710;27;20098;-76
2022/11/23 06:37:49;;;;;;;24.23;17.23;;;8.40;99.90;;;;;;5144051;27;20042;-74
2022/11/23 06:40:15;;;;;;;28.65;17.23;;;7.50;99.90;;;;;;5106866;27;20046;-74
2022/11/23 06:42:40;;;;;;;22.85;17.25;;;7.50;99.90;;;;;;5144265;27;20554;-75
2022/11/23 06:45:07;;;;;;;31.67;20.73;;;8.90;99.90;;;;;;5108208;27;20129;-72
2022/11/23 06:47:33;;;;;;;24.08;16.90;;;7.50;99.90;;;;;;5120988;27;20148;-72
2022/11/23 06:49:58;;;;;;;25.08;16.75;;;7.50;99.90;;;;;;5108844;27;20047;-75
2022/11/23 06:52:24;;;;;;;26.70;16.88;;;7.50;99.90;;;;;;5141535;27;20038;-74
2022/11/23 06:54:50;;;;;;;23.02;16.10;;;7.70;99.90;;;;;;5107658;27;20043;-75
2022/11/23 06:57:15;;;;;;;22.35;15.70;;;7.50;99.90;;;;;;5106909;27;20043;-76
2022/11/23 06:59:41;;;;;;;24.08;15.23;;;7.60;99.90;;;;;;5124881;27;20482;-75
2022/11/23 07:02:08;;;;;;;25.80;15.73;;;7.40;99.90;;;;;;5119927;27;20046;-73
2022/11/23 07:04:34;;;;;;;57.13;34.05;;;7.40;99.90;;;;;;5125108;27;20468;-75
2022/11/23 07:06:59;;;;;;;26.48;16.38;;;7.40;99.90;;;;;;5123610;27;20070;-74
2022/11/23 07:09:25;;;;;;;25.08;13.93;;;7.40;99.90;;;;;;5106285;27;20052;-75
2022/11/23 07:11:51;;;;;;;18.85;12.75;;;8.50;99.90;;;;;;5145724;27;20122;-74
2022/11/23 07:14:16;;;;;;;20.42;12.38;;;7.30;99.90;;;;;;5139711;27;20070;-73
2022/11/23 07:16:42;;;;;;;21.15;13.48;;;7.40;99.90;;;;;;5105754;27;20379;-73
2022/11/23 07:19:08;;;;;;;18.80;12.45;;;7.40;99.90;;;;;;5141333;27;20052;-73
2022/11/23 07:21:33;;;;;;;18.58;12.10;;;7.40;99.90;;;;;;5140484;27;20063;-75
2022/11/23 07:23:59;;;;;;;21.23;13.05;;;8.00;99.90;;;;;;5124150;27;20481;-74
2022/11/23 07:26:24;;;;;;;21.42;12.48;;;8.50;99.90;;;;;;5106165;27;20073;-74
2022/11/23 07:28:50;;;;;;;16.90;11.82;;;8.10;99.90;;;;;;5142145;27;20042;-76
2022/11/23 07:31:19;;;;;;;15.02;10.73;;;7.30;99.90;;;;;;5106883;27;20486;-75
2022/11/23 07:33:45;;;;;;;20.58;11.02;;;7.30;99.90;;;;;;5124336;27;20037;-76
2022/11/23 07:36:11;;;;;;;15.00;10.40;;;7.30;99.90;;;;;;5123020;27;20088;-74
2022/11/23 07:38:37;;;;;;;18.85;10.57;;;7.20;99.90;;;;;;5140257;27;20477;-75
2022/11/23 07:41:03;;;;;;;18.45;10.18;;;7.30;99.90;;;;;;5119436;27;20735;-73
2022/11/23 07:43:29;;;;;;;19.05;10.18;;;7.40;99.90;;;;;;5122536;27;20120;-74
2022/11/23 07:45:56;;;;;;;16.42;11.20;;;7.20;99.90;;;;;;5121057;27;20031;-73
2022/11/23 07:48:22;;;;;;;18.70;9.63;;;7.30;99.90;;;;;;5126889;27;20043;-74
2022/11/23 07:50:51;;;;;;;15.15;8.80;;;7.20;99.90;;;;;;5102939;27;20118;-75
2022/11/23 07:53:17;;;;;;;20.58;10.30;;;7.60;99.90;;;;;;5145798;27;20125;-75
2022/11/23 07:55:42;;;;;;;15.07;9.50;;;7.20;99.90;;;;;;5120156;27;20126;-76
2022/11/23 07:58:09;;;;;;;20.77;9.30;;;7.50;99.90;;;;;;5121157;27;20035;-74
2022/11/23 08:00:34;;;;;;;17.80;9.57;;;7.20;99.90;;;;;;5106871;27;20046;-76
2022/11/23 08:03:00;;;;;;;20.65;8.82;;;7.20;99.90;;;;;;5124459;27;20126;-76
2022/11/23 08:05:26;;;;;;;16.08;9.32;;;7.20;99.90;;;;;;5121891;27;20066;-74
2022/11/23 08:07:57;;;;;;;16.95;8.57;;;7.20;99.90;;;;;;5141840;27;20490;-75
2022/11/23 08:10:23;;;;;;;18.90;8.55;;;7.70;99.90;;;;;;5141101;27;20142;-75
2022/11/23 08:12:49;;;;;;;17.25;8.20;;;7.20;99.90;;;;;;5123960;27;20122;-75
2022/11/23 08:15:15;;;;;;;15.95;7.68;;;7.30;99.90;;;;;;5123648;27;20034;-75
2022/11/23 08:17:41;;;;;;;13.70;8.00;;;7.30;99.90;;;;;;5121163;27;20425;-75
2022/11/23 08:20:07;;;;;;;18.58;8.10;;;7.30;99.90;;;;;;5124980;27;20546;-75
2022/11/23 08:22:32;;;;;;;17.10;7.32;;;7.30;99.90;;;;;;5144943;27;20043;-76
2022/11/23 08:24:58;;;;;;;17.42;9.05;;;7.30;99.90;;;;;;5120798;27;20039;-72
2022/11/23 08:27:24;;;;;;;12.82;6.60;;;7.30;99.90;;;;;;5124078;27;20114;-72
2022/11/23 08:29:49;;;;;;;20.55;6.75;;;7.30;99.90;;;;;;5127847;27;20463;-72
2022/11/23 08:32:15;;;;;;;15.80;6.40;;;7.30;99.90;;;;;;5109032;27;20026;-73
2022/11/23 08:34:42;;;;;;;11.98;5.97;;;7.30;99.90;;;;;;5146396;27;20434;-73
2022/11/23 08:37:08;;;;;;;17.23;6.93;;;7.30;99.90;;;;;;5145427;27;20079;-75
2022/11/23 08:39:34;;;;;;;14.45;6.10;;;7.40;99.90;;;;;;5144772;27;20436;-72
2022/11/23 08:41:59;;;;;;;15.52;6.72;;;8.30;99.90;;;;;;5146169;27;20527;-72
2022/11/23 08:44:25;;;;;;;15.00;6.00;;;7.40;99.90;;;;;;5144401;27;20031;-74
2022/11/23 08:46:51;;;;;;;17.77;6.25;;;7.40;99.90;;;;;;5145160;27;20473;-73
2022/11/23 08:49:16;;;;;;;15.57;6.93;;;7.40;99.90;;;;;;5108851;27;20115;-75
2022/11/23 08:51:42;;;;;;;19.63;8.57;;;7.40;99.90;;;;;;5127820;27;20175;-75
2022/11/23 08:54:07;;;;;;;13.35;5.88;;;7.80;99.90;;;;;;5109701;27;20408;-75
2022/11/23 08:56:33;;;;;;;17.95;5.68;;;7.40;99.90;;;;;;5126723;27;20421;-74
2022/11/23 08:58:59;;;;;;;14.43;6.15;;;7.50;99.90;;;;;;5142075;27;20046;-75
2022/11/23 09:01:24;;;;;;;13.25;5.63;;;7.50;99.90;;;;;;5148730;27;20037;-75
2022/11/23 09:03:50;;;;;;;17.10;5.57;;;7.50;99.90;;;;;;5123417;27;20040;-75
2022/11/23 09:06:16;;;;;;;18.23;6.68;;;7.50;99.90;;;;;;5130004;27;20030;-75
2022/11/23 09:08:41;;;;;;;15.95;6.60;;;7.50;99.90;;;;;;5122910;27;20510;-76
2022/11/23 09:11:10;;;;;;;13.95;5.95;;;7.60;99.90;;;;;;5130207;27;20129;-75
2022/11/23 09:13:37;;;;;;;18.38;5.47;;;7.70;99.90;;;;;;5123205;27;20493;-75
2022/11/23 09:16:03;;;;;;;22.02;5.47;;;7.70;99.90;;;;;;5147958;27;20057;-72
2022/11/23 09:18:30;;;;;;;18.45;5.60;;;7.70;99.90;;;;;;5125287;27;20046;-75
2022/11/23 09:20:56;;;;;;;22.23;5.88;;;7.70;99.90;;;;;;5141305;27;20374;-76
2022/11/23 09:23:22;;;;;;;14.40;5.05;;;7.70;99.90;;;;;;5129805;27;20054;-75
2022/11/23 09:25:49;;;;;;;17.67;5.72;;;7.80;99.90;;;;;;5141453;27;20039;-75
2022/11/23 09:28:18;;;;;;;16.98;5.35;;;7.80;99.90;;;;;;5130060;27;20042;-76
2022/11/23 09:30:45;;;;;;;14.55;6.15;;;7.80;99.90;;;;;;5122700;27;20035;-73
2022/11/23 09:33:10;;;;;;;17.60;4.93;;;7.90;99.90;;;;;;5130593;27;20038;-75
2022/11/23 09:35:36;;;;;;;12.50;4.97;;;7.90;99.90;;;;;;5106155;27;20398;-75
2022/11/23 09:38:02;;;;;;;19.05;4.75;;;7.90;99.90;;;;;;5140129;27;20055;-75
2022/11/23 09:40:37;;;;;;;14.90;4.35;;;8.00;99.90;;;;;;5129810;27;20158;-75
2022/11/23 09:43:32;;;;;;;14.50;4.72;;;8.00;99.90;;;;;;5121984;27;20542;-76
2022/11/23 09:46:07;;;;;;;16.08;4.43;;;8.00;99.90;;;;;;5141260;27;20031;-75
2022/11/23 09:49:00;;;;;;;14.40;4.15;;;9.00;99.90;;;;;;5124486;27;20047;-75
2022/11/23 09:51:25;;;;;;;19.13;4.05;;;8.00;99.90;;;;;;5105352;27;20495;-75
2022/11/23 09:54:14;;;;;;;13.70;3.92;;;8.00;99.90;;;;;;5108996;27;20091;-75
2022/11/23 09:56:41;;;;;;;12.68;3.88;;;8.00;99.90;;;;;;5099025;27;20137;-75
2022/11/23 09:59:22;;;;;;;12.80;3.95;;;8.20;99.90;;;;;;5125822;27;20035;-76
2022/11/23 10:01:48;;;;;;;11.40;3.83;;;8.00;99.90;;;;;;5107401;27;20039;-76
2022/11/23 10:04:18;;;;;;;21.30;6.00;;;8.40;99.90;;;;;;5122199;27;20050;-75
2022/11/23 10:06:47;;;;;;;13.57;4.53;;;9.00;99.90;;;;;;5124307;27;20057;-72
2022/11/23 10:09:49;;;;;;;19.38;4.90;;;8.00;99.90;;;;;;5126206;27;20510;-76
2022/11/23 10:12:30;;;;;;;17.08;4.45;;;8.00;99.90;;;;;;5122890;27;20031;-75
2022/11/23 10:15:04;;;;;;;15.73;4.05;;;8.10;99.90;;;;;;5121954;27;20039;-75
2022/11/23 10:17:57;;;;;;;15.02;4.90;;;8.80;99.90;;;;;;5106117;27;20039;-75
2022/11/23 10:20:48;;;;;;;16.55;4.65;;;8.00;99.90;;;;;;5117336;27;20035;-76
2022/11/23 10:23:45;;;;;;;12.30;3.85;;;8.10;99.90;;;;;;5122691;27;20035;-75
2022/11/23 10:26:17;;;;;;;20.65;4.60;;;8.10;99.90;;;;;;5110763;27;20482;-72
2022/11/23 10:28:45;;;;;;;15.10;4.10;;;8.10;99.90;;;;;;5139084;27;20074;-75
2022/11/23 10:31:15;;;;;;;14.55;4.68;;;8.10;99.90;;;;;;5123944;27;20039;-75
2022/11/23 10:34:06;;;;;;;12.50;4.55;;;8.10;99.90;;;;;;5144329;27;20056;-76
2022/11/23 10:36:35;;;;;;;16.75;4.40;;;8.10;99.90;;;;;;5105003;27;20503;-75
2022/11/23 10:39:01;;;;;;;13.13;3.72;;;8.10;99.90;;;;;;5105641;27;20068;-75
2022/11/23 10:41:29;;;;;;;16.25;3.85;;;8.30;99.90;;;;;;5106975;27;20051;-76
2022/11/23 10:44:17;;;;;;;15.15;4.10;;;9.10;99.90;;;;;;5124113;27;20038;-75
2022/11/23 10:46:43;;;;;;;9.35;3.70;;;8.20;99.90;;;;;;5140067;27;20490;-75
2022/11/23 10:49:16;;;;;;;13.52;3.83;;;8.20;99.90;;;;;;5146417;27;20463;-75
2022/11/23 10:51:57;;;;;;;16.13;3.78;;;8.20;99.90;;;;;;5139450;27;20041;-76
2022/11/23 10:54:51;;;;;;;15.85;3.97;;;8.20;99.90;;;;;;5122286;27;20485;-75
2022/11/23 10:57:27;;;;;;;12.80;4.17;;;8.20;99.90;;;;;;5121751;27;20465;-76
2022/11/23 10:59:58;;;;;;;17.60;3.85;;;8.20;99.90;;;;;;5118697;27;20470;-76
2022/11/23 11:02:24;;;;;;;13.95;4.25;;;8.30;99.90;;;;;;5106206;27;20109;-76
2022/11/23 11:05:10;;;;;;;20.98;4.18;;;8.30;99.90;;;;;;5124179;27;20117;-76
2022/11/23 11:07:36;;;;;;;17.63;2.97;;;8.30;99.90;;;;;;5123596;27;20054;-75
2022/11/23 11:10:03;;;;;;;14.57;4.30;;;8.30;99.90;;;;;;5142969;27;20050;-76
2022/11/23 11:12:33;;;;;;;15.73;3.65;;;8.30;99.90;;;;;;5104333;27;20034;-75
2022/11/23 11:15:10;;;;;;;10.40;3.15;;;8.80;99.90;;;;;;5124689;27;20153;-74
2022/11/23 11:17:40;;;;;;;15.05;3.22;;;8.40;99.90;;;;;;5105036;27;20043;-74
2022/11/23 11:20:32;;;;;;;17.88;3.95;;;8.90;99.90;;;;;;5100099;27;20375;-75
2022/11/23 11:23:19;;;;;;;15.85;4.53;;;8.50;99.90;;;;;;5127895;27;20043;-75
2022/11/23 11:25:46;;;;;;;19.75;3.20;;;8.50;99.90;;;;;;5102606;27;20495;-75
2022/11/23 11:28:32;;;;;;;18.23;3.80;;;8.60;99.90;;;;;;5120341;27;20039;-75
2022/11/23 11:31:19;;;;;;;13.23;2.60;;;8.60;99.90;;;;;;5138856;27;20038;-73
2022/11/23 11:33:59;;;;;;;13.43;2.42;;;8.70;99.90;;;;;;5136528;27;20038;-76
2022/11/23 11:36:30;;;;;;;10.00;2.90;;;8.70;99.90;;;;;;5123685;27;20035;-76
2022/11/23 11:38:58;;;;;;;14.10;2.35;;;8.80;99.90;;;;;;5124001;27;20099;-75
2022/11/23 11:41:26;;;;;;;12.00;2.55;;;8.70;99.90;;;;;;5140035;27;20031;-74
2022/11/23 11:44:08;;;;;;;14.80;2.65;;;8.70;99.90;;;;;;5107132;27;20118;-75
2022/11/23 11:46:39;;;;;;;11.10;3.13;;;8.90;99.90;;;;;;5105449;27;20050;-75
2022/11/23 11:49:14;;;;;;;14.55;3.10;;;8.70;99.90;;;;;;5124043;27;20378;-74
2022/11/23 11:51:45;;;;;;;19.05;2.88;;;8.80;99.90;;;;;;5106613;27;20079;-74
2022/11/23 11:54:25;;;;;;;14.63;3.67;;;9.90;99.90;;;;;;5122644;27;20033;-75
2022/11/23 11:56:54;;;;;;;14.38;2.22;;;8.90;99.90;;;;;;5102863;27;20040;-75
2022/11/23 11:59:28;;;;;;;16.77;2.65;;;8.90;99.90;;;;;;5127087;27;20103;-75
2022/11/23 12:02:24;;;;;;;15.65;2.22;;;9.00;99.90;;;;;;5102796;27;20047;-75
2022/11/23 12:04:54;;;;;;;19.33;3.13;;;9.00;99.90;;;;;;5138923;27;20067;-75
2022/11/23 12:07:32;;;;;;;13.27;2.55;;;9.10;99.90;;;;;;5138612;27;20088;-75
2022/11/23 12:10:16;;;;;;;20.38;3.13;;;9.00;99.90;;;;;;5145086;27;20051;-75
2022/11/23 12:12:41;;;;;;;20.40;3.13;;;9.00;99.90;;;;;;5123945;27;20038;-75
2022/11/23 12:15:17;;;;;;;18.88;3.58;;;9.00;99.90;;;;;;5122929;27;20038;-74
2022/11/23 12:17:54;;;;;;;17.95;2.45;;;9.00;99.90;;;;;;5123239;27;20053;-74
2022/11/23 12:20:22;;;;;;;13.98;2.70;;;9.00;99.90;;;;;;5123709;27;20031;-74
2022/11/23 12:22:58;;;;;;;14.90;3.20;;;9.00;99.90;;;;;;5123366;27;20474;-74
2022/11/23 12:25:35;;;;;;;16.50;2.50;;;9.10;99.90;;;;;;5141590;27;20114;-74
2022/11/23 12:28:38;;;;;;;15.43;3.35;;;9.10;99.90;;;;;;5119532;28;20035;-75
2022/11/23 12:31:13;;;;;;;13.73;2.72;;;9.10;99.90;;;;;;5124974;27;20329;-74
2022/11/23 12:34:17;;;;;;;12.15;2.38;;;9.20;99.90;;;;;;5123558;27;20039;-75
2022/11/23 12:37:08;;;;;;;13.07;2.58;;;9.20;99.90;;;;;;5122492;27;20050;-74
2022/11/23 12:40:06;;;;;;;11.68;2.03;;;9.20;99.90;;;;;;5141420;27;20065;-75
2022/11/23 12:43:04;;;;;;;21.08;3.00;;;9.20;99.90;;;;;;5121846;27;20126;-74
2022/11/23 12:45:57;;;;;;;13.50;2.38;;;9.20;99.90;;;;;;5120897;27;20051;-75
2022/11/23 12:48:44;;;;;;;11.80;2.22;;;9.30;99.90;;;;;;5104136;27;20062;-75
2022/11/23 12:51:26;;;;;;;14.25;2.10;;;9.30;99.90;;;;;;5122338;27;20042;-74
2022/11/23 12:54:45;;;;;;;10.20;2.20;;;9.30;99.90;;;;;;5139105;27;20042;-75